Time;durP1;ratioP1;P1;durP2;ratioP2;P2;SDS_P1;SDS_P2;PMS_P1;PMS_P2;Temp;Humidity;BMP_temperature;BMP_pressure;BME280_temperature;BME280_humidity;BME280_pressure;Samples;Min_cycle;Max_cycle;Signal;HPM_P1;HPM_P2
2021/04/01 00:00:20;;;;;;;8.17;5.13;;;13.80;86.20;;;;;;5080335;28;20201;-54
2021/04/01 00:02:50;;;;;;;7.77;4.23;;;13.80;86.10;;;;;;5079864;28;20170;-48
2021/04/01 00:05:17;;;;;;;8.63;4.50;;;13.70;86.30;;;;;;5076133;28;20190;-47
2021/04/01 00:07:43;;;;;;;7.03;4.50;;;13.60;87.00;;;;;;5076856;28;20194;-47
2021/04/01 00:10:15;;;;;;;7.37;4.87;;;13.60;87.00;;;;;;5076619;28;20174;-59
2021/04/01 00:12:41;;;;;;;11.90;4.87;;;13.60;87.20;;;;;;5076416;28;20619;-47
2021/04/01 00:15:09;;;;;;;7.53;4.67;;;13.50;87.40;;;;;;5076841;28;20300;-46
2021/04/01 00:17:36;;;;;;;7.07;4.77;;;13.50;87.40;;;;;;5076946;28;20174;-47
2021/04/01 00:20:04;;;;;;;10.83;4.83;;;13.50;87.80;;;;;;5077016;28;20178;-49
2021/04/01 00:22:29;;;;;;;7.93;4.90;;;13.40;88.00;;;;;;5075953;28;20193;-47
2021/04/01 00:24:55;;;;;;;5.43;4.30;;;13.40;88.40;;;;;;5074580;28;20186;-47
2021/04/01 00:27:20;;;;;;;6.27;4.40;;;13.40;88.40;;;;;;5062187;28;20214;-47
2021/04/01 00:29:46;;;;;;;5.03;4.10;;;13.40;88.80;;;;;;5063182;28;20186;-49
2021/04/01 00:32:12;;;;;;;7.67;4.40;;;13.40;88.60;;;;;;5061990;28;20179;-48
2021/04/01 00:34:37;;;;;;;7.17;4.07;;;13.40;89.00;;;;;;5068404;28;20183;-59
2021/04/01 00:37:03;;;;;;;6.73;4.07;;;13.40;89.10;;;;;;5073692;28;20718;-48
2021/04/01 00:39:29;;;;;;;7.27;4.20;;;13.40;89.30;;;;;;5063601;28;20505;-50
2021/04/01 00:41:54;;;;;;;7.20;3.87;;;13.30;89.20;;;;;;5061126;28;20585;-51
2021/04/01 00:44:20;;;;;;;5.57;3.80;;;13.30;89.30;;;;;;5066410;28;20222;-50
2021/04/01 00:46:49;;;;;;;5.13;3.77;;;13.20;89.30;;;;;;5057370;28;20249;-48
2021/04/01 00:49:15;;;;;;;4.57;3.67;;;13.20;89.70;;;;;;5065436;28;20214;-56
2021/04/01 00:51:41;;;;;;;5.90;4.10;;;13.20;89.60;;;;;;5056211;28;20304;-53
2021/04/01 00:54:07;;;;;;;5.27;4.33;;;13.10;89.70;;;;;;5068725;28;20627;-50
2021/04/01 00:56:33;;;;;;;6.90;4.00;;;13.10;90.00;;;;;;5064566;28;20191;-48
2021/04/01 00:58:59;;;;;;;6.43;3.90;;;13.10;89.90;;;;;;5066685;28;20187;-48
2021/04/01 01:03:58;;;;;;;5.63;3.87;;;12.90;90.30;;;;;;5060916;28;20237;-48
2021/04/01 01:06:23;;;;;;;6.23;4.00;;;12.90;90.20;;;;;;5057860;28;20203;-47
2021/04/01 01:08:49;;;;;;;7.17;3.80;;;12.90;90.30;;;;;;5075220;28;20597;-48
2021/04/01 01:11:14;;;;;;;5.13;3.73;;;12.80;90.40;;;;;;5070830;28;20170;-47
2021/04/01 01:13:40;;;;;;;4.23;3.40;;;12.80;90.60;;;;;;5060895;28;20638;-56
2021/04/01 01:16:06;;;;;;;6.23;3.83;;;12.70;90.70;;;;;;5058939;28;20199;-48
2021/04/01 01:18:31;;;;;;;9.17;4.40;;;12.70;90.80;;;;;;5073563;28;20194;-56
2021/04/01 01:20:59;;;;;;;5.53;3.57;;;12.60;90.80;;;;;;5070838;28;20191;-49
2021/04/01 01:23:29;;;;;;;6.80;3.90;;;12.60;90.90;;;;;;5054965;28;20247;-50
2021/04/01 01:25:55;;;;;;;6.83;4.40;;;12.70;91.00;;;;;;5067973;28;20654;-54
2021/04/01 01:28:22;;;;;;;4.60;3.80;;;12.70;91.00;;;;;;5064209;28;20999;-47
2021/04/01 01:30:48;;;;;;;5.77;4.10;;;12.70;90.90;;;;;;5073133;28;20198;-58
2021/04/01 01:33:17;;;;;;;8.77;3.60;;;12.60;91.00;;;;;;5072442;28;20238;-48
2021/04/01 01:35:44;;;;;;;5.63;3.80;;;12.60;91.00;;;;;;5077424;28;20221;-49
2021/04/01 01:38:09;;;;;;;5.17;3.73;;;12.50;91.10;;;;;;5055402;28;20237;-59
2021/04/01 01:40:36;;;;;;;4.90;4.03;;;12.40;91.30;;;;;;5061865;28;20174;-56
2021/04/01 01:43:04;;;;;;;5.53;4.13;;;12.40;91.50;;;;;;5069251;28;20223;-55
2021/04/01 01:45:31;;;;;;;8.63;4.07;;;12.30;91.70;;;;;;5063609;28;20621;-56
2021/04/01 01:47:57;;;;;;;8.03;3.90;;;12.30;91.90;;;;;;5056530;28;20211;-57
2021/04/01 01:50:26;;;;;;;4.40;3.90;;;12.20;92.20;;;;;;5053604;28;20171;-56
2021/04/01 01:52:52;;;;;;;5.67;3.90;;;12.20;92.20;;;;;;5052019;28;20534;-49
2021/04/01 01:55:18;;;;;;;7.30;3.97;;;12.20;92.30;;;;;;5052203;28;20198;-48
2021/04/01 01:57:44;;;;;;;5.00;3.57;;;12.10;92.30;;;;;;5052331;28;20175;-55
2021/04/01 02:00:53;;;;;;;5.60;4.00;;;12.10;92.60;;;;;;5052400;28;20183;-51
2021/04/01 02:03:20;;;;;;;5.60;4.13;;;12.00;92.50;;;;;;5010576;28;20180;-59
2021/04/01 02:05:45;;;;;;;5.37;4.20;;;12.00;92.70;;;;;;5010641;28;20234;-57
2021/04/01 02:08:13;;;;;;;6.23;3.87;;;12.00;92.80;;;;;;5012841;28;20246;-48
2021/04/01 02:10:41;;;;;;;5.23;4.13;;;11.90;92.90;;;;;;5012812;28;20209;-53
2021/04/01 02:13:07;;;;;;;4.83;3.93;;;11.90;93.00;;;;;;5012468;28;20184;-56
2021/04/01 02:15:38;;;;;;;5.03;4.10;;;11.90;93.10;;;;;;5012759;28;20208;-58
2021/04/01 02:18:18;;;;;;;4.33;3.47;;;11.90;93.00;;;;;;5012604;28;20184;-47
2021/04/01 02:20:47;;;;;;;5.50;4.00;;;11.90;93.10;;;;;;5013080;28;20266;-48
2021/04/01 02:23:14;;;;;;;7.53;3.90;;;11.80;93.30;;;;;;5012597;28;20176;-59
2021/04/01 02:25:42;;;;;;;4.33;3.80;;;14.00;94.50;;;;;;5012118;28;20294;-50
2021/04/01 02:28:09;;;;;;;4.77;4.13;;;11.70;93.60;;;;;;5011968;28;20236;-52
2021/04/01 02:30:37;;;;;;;6.13;3.97;;;11.70;93.80;;;;;;5012965;28;20195;-49
2021/04/01 02:33:03;;;;;;;6.93;3.80;;;11.60;94.00;;;;;;5012084;28;20207;-58
2021/04/01 02:35:28;;;;;;;6.37;4.17;;;11.60;94.20;;;;;;5012058;28;20665;-53
2021/04/01 02:37:54;;;;;;;6.73;4.30;;;11.60;94.30;;;;;;5044051;28;20203;-58
2021/04/01 02:40:21;;;;;;;4.90;3.93;;;11.50;94.50;;;;;;5053598;28;20639;-48
2021/04/01 02:42:47;;;;;;;5.67;4.10;;;11.50;94.40;;;;;;5053927;28;20265;-58
2021/04/01 02:45:13;;;;;;;4.30;3.63;;;11.40;94.50;;;;;;5054375;28;20233;-59
2021/04/01 02:47:39;;;;;;;4.40;4.00;;;11.40;94.60;;;;;;5054229;28;20194;-48
2021/04/01 02:50:07;;;;;;;6.97;4.03;;;11.40;94.60;;;;;;5053786;28;20224;-52
2021/04/01 02:52:32;;;;;;;5.53;3.80;;;11.40;94.70;;;;;;5053742;28;20175;-57
2021/04/01 02:54:58;;;;;;;6.10;4.33;;;11.50;94.70;;;;;;5053619;28;20174;-49
2021/04/01 02:57:24;;;;;;;4.30;3.77;;;11.50;94.70;;;;;;5054279;28;20565;-55
2021/04/01 02:59:49;;;;;;;4.60;3.60;;;11.40;94.80;;;;;;5054274;28;20183;-47
2021/04/01 03:02:17;;;;;;;9.57;3.97;;;11.40;94.90;;;;;;5054502;28;20171;-59
2021/04/01 03:04:42;;;;;;;5.90;4.53;;;11.40;94.60;;;;;;5055169;28;20183;-58
2021/04/01 03:07:08;;;;;;;7.03;4.17;;;11.40;94.60;;;;;;5053703;28;20274;-48
2021/04/01 03:09:34;;;;;;;5.07;3.70;;;11.40;94.70;;;;;;5053550;28;20207;-58
2021/04/01 03:12:01;;;;;;;6.83;4.70;;;11.40;94.60;;;;;;5053927;28;20181;-57
2021/04/01 03:14:27;;;;;;;6.93;4.50;;;11.30;94.60;;;;;;5053751;28;20175;-48
2021/04/01 03:16:53;;;;;;;6.97;4.70;;;11.30;94.80;;;;;;5053917;28;20230;-51
2021/04/01 03:19:18;;;;;;;7.63;4.87;;;11.20;95.00;;;;;;5053902;28;20182;-58
2021/04/01 03:21:45;;;;;;;6.70;4.70;;;11.20;95.20;;;;;;5066742;28;20194;-56
2021/04/01 03:24:12;;;;;;;4.83;4.43;;;11.20;95.30;;;;;;5073398;28;20178;-47
2021/04/01 03:26:38;;;;;;;7.10;4.57;;;11.20;95.20;;;;;;5073336;28;20277;-54
2021/04/01 03:29:03;;;;;;;7.77;4.63;;;11.20;95.30;;;;;;5073829;28;20209;-55
2021/04/01 03:31:29;;;;;;;5.13;4.30;;;11.10;95.50;;;;;;5073915;28;20182;-58
2021/04/01 03:33:55;;;;;;;7.67;4.30;;;11.10;95.80;;;;;;5074320;28;20515;-48
2021/04/01 03:36:20;;;;;;;7.00;4.10;;;11.00;96.00;;;;;;5066101;28;20282;-49
2021/04/01 03:38:47;;;;;;;6.90;4.60;;;11.00;96.30;;;;;;5054466;28;20623;-53
2021/04/01 03:41:13;;;;;;;6.43;4.03;;;11.00;96.60;;;;;;5057421;28;20179;-48
2021/04/01 03:43:39;;;;;;;5.20;4.17;;;10.90;96.50;;;;;;5057263;28;20178;-56
2021/04/01 03:46:06;;;;;;;5.07;4.17;;;11.00;96.60;;;;;;5057390;28;20213;-52
2021/04/01 03:48:31;;;;;;;5.60;4.20;;;10.90;96.40;;;;;;5057921;28;20198;-48
2021/04/01 03:50:57;;;;;;;6.27;4.33;;;10.90;96.60;;;;;;5057011;28;20175;-54
2021/04/01 03:53:22;;;;;;;7.23;5.07;;;10.80;96.50;;;;;;5056865;28;20221;-47
2021/04/01 03:55:49;;;;;;;5.00;4.50;;;10.80;96.40;;;;;;5057349;28;20651;-57
2021/04/01 04:16:23;;;;;;;8.47;5.83;;;10.40;97.70;;;;;;5057238;28;20741;-52
2021/04/01 04:18:49;;;;;;;11.87;5.50;;;10.40;97.90;;;;;;5058052;28;20266;-57
2021/04/01 04:21:16;;;;;;;8.50;7.27;;;10.40;98.20;;;;;;5066630;28;20186;-52
2021/04/01 04:23:46;;;;;;;7.33;6.23;;;10.30;98.10;;;;;;5067608;28;20194;-49
2021/04/01 04:26:12;;;;;;;9.40;7.77;;;10.40;98.00;;;;;;5061004;28;20211;-54
2021/04/01 04:28:38;;;;;;;10.90;8.10;;;10.20;98.60;;;;;;5066169;28;20211;-49
2021/04/01 04:31:05;;;;;;;12.13;7.97;;;10.20;99.10;;;;;;5056472;28;20550;-53
2021/04/01 04:33:31;;;;;;;11.20;7.67;;;10.10;99.50;;;;;;5055843;28;20183;-47
2021/04/01 04:35:57;;;;;;;9.17;7.63;;;10.10;99.90;;;;;;5069227;28;20210;-47
2021/04/01 04:38:24;;;;;;;8.03;7.10;;;10.10;99.90;;;;;;5075743;28;20725;-47
2021/04/01 04:40:54;;;;;;;10.83;7.90;;;10.10;99.90;;;;;;5076661;28;20575;-48
2021/04/01 04:43:20;;;;;;;9.27;7.40;;;10.10;99.90;;;;;;5075133;28;20626;-49
2021/04/01 04:45:46;;;;;;;8.23;7.00;;;10.10;99.90;;;;;;5074967;28;20225;-55
2021/04/01 04:48:11;;;;;;;8.80;7.70;;;10.10;99.90;;;;;;5082863;28;20292;-53
2021/04/01 04:50:37;;;;;;;8.77;7.73;;;10.10;99.90;;;;;;5080221;28;20171;-56
2021/04/01 04:53:03;;;;;;;11.50;7.60;;;10.10;99.90;;;;;;5076779;28;20173;-54
2021/04/01 04:55:28;;;;;;;12.00;8.70;;;10.10;99.90;;;;;;5072314;28;20197;-48
2021/04/01 05:05:51;;;;;;;12.07;7.83;;;10.10;99.90;;;;;;5075116;28;20259;-47
2021/04/01 05:08:17;;;;;;;11.77;7.33;;;10.10;99.90;;;;;;5083299;28;20214;-53
2021/04/01 05:10:43;;;;;;;8.77;6.20;;;10.10;99.90;;;;;;5088724;28;20186;-51
2021/04/01 05:13:10;;;;;;;11.07;6.20;;;10.20;99.90;;;;;;5062231;28;20628;-55
2021/04/01 05:15:41;;;;;;;8.13;5.40;;;10.20;99.90;;;;;;5093243;28;20197;-58
2021/04/01 05:18:15;;;;;;;7.60;5.33;;;10.10;99.90;;;;;;5077453;28;20547;-48
2021/04/01 05:20:42;;;;;;;6.83;4.80;;;10.10;99.90;;;;;;5055105;28;20527;-48
2021/04/01 05:23:20;;;;;;;7.07;5.03;;;10.10;99.90;;;;;;5062942;28;20606;-54
2021/04/01 05:25:49;;;;;;;7.13;4.83;;;10.10;99.90;;;;;;5073395;28;20694;-50
2021/04/01 05:28:28;;;;;;;8.20;4.80;;;10.10;99.90;;;;;;5073382;28;20206;-47
2021/04/01 05:30:54;;;;;;;8.23;5.80;;;10.10;99.90;;;;;;5075857;28;20169;-48
2021/04/01 05:33:19;;;;;;;11.80;5.43;;;10.20;99.90;;;;;;5074796;28;20175;-50
2021/04/01 05:35:45;;;;;;;10.30;5.57;;;10.20;99.90;;;;;;5074955;28;20198;-48
2021/04/01 05:38:11;;;;;;;7.33;5.77;;;10.20;99.90;;;;;;5063249;28;20203;-47
2021/04/01 05:40:37;;;;;;;8.27;6.60;;;10.20;99.90;;;;;;5073135;28;20190;-53
2021/04/01 05:43:12;;;;;;;8.93;7.20;;;10.30;99.90;;;;;;5069082;28;20676;-49
2021/04/01 05:45:46;;;;;;;9.13;7.87;;;10.30;99.90;;;;;;5054615;28;20213;-47
2021/04/01 05:48:25;;;;;;;10.33;6.90;;;10.20;99.90;;;;;;5054818;28;20285;-48
2021/04/01 05:56:37;;;;;;;8.37;6.60;;;10.50;99.90;;;;;;5064984;28;20612;-48
2021/04/01 06:04:09;;;;;;;9.43;7.17;;;10.80;99.90;;;;;;5068712;28;20187;-48
2021/04/01 06:06:50;;;;;;;12.23;9.27;;;10.80;99.90;;;;;;5062111;28;20206;-52
2021/04/01 06:09:21;;;;;;;13.53;10.17;;;10.90;99.90;;;;;;5058299;28;20654;-47
2021/04/01 06:11:51;;;;;;;14.83;11.43;;;11.00;99.90;;;;;;5053415;28;20183;-48
2021/04/01 06:14:42;;;;;;;12.90;8.77;;;11.10;99.90;;;;;;5057126;28;20186;-48
2021/04/01 06:17:10;;;;;;;8.90;7.23;;;11.10;99.90;;;;;;5063803;28;20301;-52
2021/04/01 06:19:39;;;;;;;10.23;8.40;;;11.30;99.90;;;;;;5054480;28;20186;-57
2021/04/01 06:22:09;;;;;;;12.17;8.20;;;11.30;99.90;;;;;;5055207;28;20652;-54
2021/04/01 06:24:37;;;;;;;8.40;6.83;;;11.40;99.90;;;;;;5053801;28;20211;-53
2021/04/01 06:27:23;;;;;;;7.70;6.90;;;11.40;99.90;;;;;;5054134;28;20206;-53
2021/04/01 06:30:16;;;;;;;9.53;6.63;;;11.40;99.90;;;;;;5053379;28;20191;-53
2021/04/01 06:32:51;;;;;;;8.70;6.80;;;11.40;99.90;;;;;;5054397;28;20179;-48
2021/04/01 06:35:29;;;;;;;7.67;6.57;;;11.60;99.90;;;;;;5054411;28;20256;-56
2021/04/01 06:40:46;;;;;;;10.40;6.87;;;11.90;99.90;;;;;;5053763;28;20193;-56
2021/04/01 06:43:17;;;;;;;9.23;7.37;;;12.00;99.90;;;;;;5054584;28;20236;-48
2021/04/01 06:45:47;;;;;;;8.43;6.40;;;11.80;99.90;;;;;;5054030;28;20593;-57
2021/04/01 06:48:19;;;;;;;9.63;7.20;;;12.50;99.90;;;;;;5053610;28;20663;-48
2021/04/01 06:50:46;;;;;;;12.67;7.10;;;11.80;99.90;;;;;;5053842;28;20177;-52
2021/04/01 06:56:27;;;;;;;11.40;7.57;;;12.10;99.90;;;;;;4992717;28;20255;-57
2021/04/01 07:01:54;;;;;;;11.53;7.60;;;12.40;99.90;;;;;;4992721;28;20188;-49
2021/04/01 07:04:22;;;;;;;9.07;7.27;;;12.60;99.90;;;;;;4992254;28;20192;-47
2021/04/01 07:07:02;;;;;;;8.60;6.87;;;12.60;99.90;;;;;;4992111;28;20753;-47
2021/04/01 07:12:24;;;;;;;9.20;6.77;;;12.90;99.90;;;;;;4991725;28;20216;-47
2021/04/01 07:14:53;;;;;;;9.80;7.07;;;13.10;99.90;;;;;;4996658;28;20170;-49
2021/04/01 07:17:37;;;;;;;8.73;7.17;;;13.20;99.90;;;;;;4996410;28;20645;-57
2021/04/01 07:47:54;;;;;;;11.93;7.47;;;14.50;96.50;;;;;;5057402;28;20180;-48
2021/04/01 07:50:23;;;;;;;12.30;7.60;;;14.40;95.10;;;;;;5056862;28;20259;-47
2021/04/01 07:53:01;;;;;;;9.73;6.80;;;14.50;95.40;;;;;;5057247;28;20179;-57
2021/04/01 07:55:54;;;;;;;10.27;7.27;;;14.70;94.50;;;;;;5055463;28;20224;-58
2021/04/01 07:58:48;;;;;;;10.90;7.07;;;14.80;94.50;;;;;;5056965;28;20183;-56
2021/04/01 08:03:58;;;;;;;9.30;6.60;;;14.80;93.50;;;;;;5073658;28;20328;-56
2021/04/01 08:06:27;;;;;;;8.73;6.23;;;14.60;93.00;;;;;;5057590;28;20212;-50
2021/04/01 08:08:59;;;;;;;10.33;7.30;;;14.60;93.50;;;;;;5056321;28;20567;-49
2021/04/01 08:11:30;;;;;;;9.90;6.43;;;14.60;93.40;;;;;;5056533;28;20706;-48
2021/04/01 08:14:22;;;;;;;9.00;6.43;;;14.50;93.60;;;;;;5064981;28;20191;-47
2021/04/01 08:17:23;;;;;;;12.23;6.90;;;14.60;93.20;;;;;;5056790;28;20676;-57
2021/04/01 08:19:40;;;;;;;8.57;6.40;;;14.60;94.30;;;;;;5055237;28;20224;-48
2021/04/01 08:22:16;;;;;;;10.57;6.83;;;14.60;94.40;;;;;;5056313;28;20185;-59
2021/04/01 08:24:50;;;;;;;11.20;6.63;;;14.60;95.30;;;;;;5054531;28;20168;-53
2021/04/01 08:27:24;;;;;;;9.00;7.10;;;14.60;94.40;;;;;;5056650;28;20291;-48
2021/04/01 08:35:25;;;;;;;12.70;6.90;;;16.20;95.60;;;;;;5056740;28;20200;-51
2021/04/01 08:40:31;;;;;;;10.73;7.23;;;15.40;93.60;;;;;;5056331;28;20606;-51
2021/04/01 08:43:37;;;;;;;11.90;7.33;;;15.40;94.80;;;;;;5055766;28;20631;-48
2021/04/01 08:46:24;;;;;;;11.80;7.13;;;15.30;93.20;;;;;;5055500;28;20226;-51
2021/04/01 08:49:22;;;;;;;9.63;6.70;;;15.30;92.70;;;;;;5066317;28;20211;-48
2021/04/01 08:52:26;;;;;;;12.77;7.00;;;15.40;93.20;;;;;;5056555;28;20182;-49
2021/04/01 08:55:04;;;;;;;12.10;8.00;;;15.50;92.10;;;;;;5065434;28;20197;-48
2021/04/01 08:58:02;;;;;;;9.57;7.50;;;15.60;91.70;;;;;;5055716;28;20256;-59
2021/04/01 09:00:31;;;;;;;14.83;8.17;;;16.00;92.50;;;;;;5055068;28;20175;-57
2021/04/01 09:02:58;;;;;;;13.00;8.03;;;16.20;92.70;;;;;;5055121;28;20175;-58
2021/04/01 09:05:24;;;;;;;12.13;8.27;;;16.50;91.00;;;;;;5054081;28;20191;-59
2021/04/01 09:07:59;;;;;;;12.97;7.57;;;16.40;90.40;;;;;;5054332;28;20220;-51
2021/04/01 09:10:30;;;;;;;10.10;8.10;;;16.80;90.10;;;;;;5054803;28;20162;-59
2021/04/01 09:18:24;;;;;;;12.03;8.67;;;17.40;89.30;;;;;;5055833;28;20170;-51
2021/04/01 09:20:52;;;;;;;11.63;8.07;;;17.50;87.10;;;;;;5055688;28;20178;-48
2021/04/01 09:23:21;;;;;;;10.10;8.07;;;17.70;88.10;;;;;;5055239;28;20180;-48
2021/04/01 09:25:49;;;;;;;10.93;7.93;;;17.90;86.00;;;;;;5055634;28;20219;-49
2021/04/01 09:28:15;;;;;;;13.87;8.77;;;18.40;86.50;;;;;;5054804;28;20199;-53
2021/04/01 09:30:42;;;;;;;13.57;9.07;;;18.60;84.30;;;;;;5055029;28;20170;-50
2021/04/01 09:33:26;;;;;;;13.70;8.90;;;18.80;84.60;;;;;;5054695;28;20227;-48
2021/04/01 09:35:53;;;;;;;12.23;8.87;;;18.90;80.10;;;;;;5055020;28;20201;-53
2021/04/01 09:38:18;;;;;;;14.50;9.83;;;19.10;81.80;;;;;;5054946;28;20173;-58
2021/04/01 09:40:48;;;;;;;10.93;8.63;;;18.80;81.00;;;;;;5054764;28;20185;-57
2021/04/01 09:43:18;;;;;;;13.67;9.80;;;18.90;84.30;;;;;;5055012;28;20208;-48
2021/04/01 09:45:45;;;;;;;14.17;9.60;;;18.80;82.00;;;;;;5054920;28;20191;-59
2021/04/01 09:48:12;;;;;;;12.70;9.40;;;18.80;82.10;;;;;;5055090;28;20246;-59
2021/04/01 09:50:46;;;;;;;12.13;9.10;;;18.90;81.50;;;;;;5055055;28;20485;-54
2021/04/01 09:53:20;;;;;;;18.20;9.77;;;19.10;82.10;;;;;;5054815;28;20152;-50
2021/04/01 09:55:48;;;;;;;16.17;10.37;;;19.30;81.30;;;;;;5054852;28;20219;-48
2021/04/01 09:58:26;;;;;;;13.77;9.90;;;19.30;82.00;;;;;;5054485;28;20211;-56
2021/04/01 10:03:22;;;;;;;14.60;10.13;;;19.40;80.60;;;;;;5055230;28;20175;-59
2021/04/01 10:05:49;;;;;;;14.20;10.53;;;19.50;79.30;;;;;;5054486;28;20210;-48
2021/04/01 10:08:26;;;;;;;14.80;11.03;;;19.60;79.20;;;;;;5054246;28;20250;-48
2021/04/01 10:11:12;;;;;;;16.77;10.73;;;19.70;77.30;;;;;;5054606;28;20183;-55
2021/04/01 10:13:37;;;;;;;15.67;10.57;;;20.10;79.60;;;;;;5054171;28;20164;-49
2021/04/01 10:16:23;;;;;;;19.17;10.67;;;20.60;80.90;;;;;;5054215;28;20547;-51
2021/04/01 10:18:49;;;;;;;16.73;11.40;;;20.90;75.90;;;;;;5054399;28;20221;-51
2021/04/01 10:21:15;;;;;;;14.70;11.20;;;20.90;76.30;;;;;;5054110;28;20190;-52
2021/04/01 10:23:45;;;;;;;15.93;11.53;;;21.00;74.60;;;;;;5054086;28;20536;-56
2021/04/01 10:26:12;;;;;;;18.07;11.27;;;21.30;75.80;;;;;;5053893;28;20533;-54
2021/04/01 10:29:22;;;;;;;17.67;11.53;;;21.70;74.60;;;;;;5052763;28;20203;-58
2021/04/01 10:31:44;;;;;;;13.85;10.50;;;22.00;72.70;;;;;;5055503;28;20233;-59
2021/04/01 10:34:29;;;;;;;15.95;11.70;;;22.60;76.00;;;;;;5066034;28;20177;-58
2021/04/01 10:36:58;;;;;;;16.45;11.75;;;23.00;69.70;;;;;;5054055;28;20214;-50
2021/04/01 10:39:32;;;;;;;15.60;11.05;;;23.20;67.60;;;;;;5054559;28;20183;-55
2021/04/01 10:41:59;;;;;;;14.38;10.77;;;23.20;67.20;;;;;;5053789;28;20186;-48
2021/04/01 10:44:25;;;;;;;16.55;11.80;;;23.50;69.50;;;;;;5054069;28;20646;-56
2021/04/01 10:46:55;;;;;;;16.90;10.88;;;23.90;66.10;;;;;;5054876;28;20195;-59
2021/04/01 10:49:25;;;;;;;17.75;11.25;;;24.40;66.00;;;;;;5053780;28;20226;-57
2021/04/01 10:51:57;;;;;;;14.98;11.48;;;25.10;62.90;;;;;;5053557;28;20500;-50
2021/04/01 10:54:25;;;;;;;15.60;11.65;;;25.60;64.20;;;;;;5053657;28;20171;-51
2021/04/01 10:56:55;;;;;;;14.80;10.52;;;26.10;62.30;;;;;;5053844;28;20195;-48
2021/04/01 10:59:38;;;;;;;13.75;10.40;;;26.80;61.40;;;;;;5054505;28;20190;-56
2021/04/01 11:02:13;;;;;;;16.25;10.90;;;27.10;59.60;;;;;;5054667;28;20164;-48
2021/04/01 11:04:41;;;;;;;16.90;11.52;;;27.10;59.60;;;;;;5053831;28;20166;-48
2021/04/01 11:07:08;;;;;;;14.38;10.63;;;27.30;56.80;;;;;;5053869;28;20237;-52
2021/04/01 11:09:34;;;;;;;13.65;10.38;;;28.10;58.80;;;;;;5053245;28;20651;-52
2021/04/01 11:14:30;;;;;;;12.85;9.57;;;29.70;54.90;;;;;;5073199;28;20592;-56
2021/04/01 11:16:58;;;;;;;16.65;10.45;;;31.00;52.00;;;;;;5073552;28;20185;-54
2021/04/01 11:19:26;;;;;;;14.57;10.05;;;32.50;51.30;;;;;;5072017;28;20254;-60
2021/04/01 11:21:54;;;;;;;16.50;10.70;;;34.20;46.50;;;;;;5073323;28;20170;-51
2021/04/01 11:24:37;;;;;;;15.18;10.77;;;34.30;45.30;;;;;;5073909;28;20216;-58
2021/04/01 11:27:12;;;;;;;14.63;10.73;;;34.10;44.70;;;;;;5073338;28;20550;-60
2021/04/01 11:29:40;;;;;;;12.32;10.05;;;34.50;44.60;;;;;;5073838;28;20190;-60
2021/04/01 11:32:24;;;;;;;14.95;10.63;;;34.60;43.40;;;;;;5073352;28;20189;-50
2021/04/01 11:34:52;;;;;;;17.45;10.35;;;35.10;42.50;;;;;;5073486;28;20234;-48
2021/04/01 11:37:21;;;;;;;15.48;10.93;;;35.00;43.80;;;;;;5072465;28;20190;-59
2021/04/01 11:39:48;;;;;;;12.80;10.23;;;35.10;42.30;;;;;;5073478;28;20185;-58
2021/04/01 11:42:16;;;;;;;13.43;11.15;;;35.90;42.20;;;;;;5073695;28;20184;-50
2021/04/01 11:44:44;;;;;;;14.05;10.80;;;36.40;39.80;;;;;;5073088;28;20178;-60
2021/04/01 11:47:16;;;;;;;15.20;10.43;;;35.10;40.70;;;;;;5073963;28;20239;-49
2021/04/01 11:49:43;;;;;;;13.60;11.10;;;33.80;43.60;;;;;;5073903;28;20194;-57
2021/04/01 11:52:10;;;;;;;12.65;9.43;;;33.70;42.70;;;;;;5073186;28;20228;-49
2021/04/01 11:54:37;;;;;;;12.23;8.80;;;34.30;43.10;;;;;;5073598;28;20170;-51
2021/04/01 11:57:03;;;;;;;13.30;9.90;;;34.50;42.30;;;;;;5072695;28;20239;-57
2021/04/01 11:59:34;;;;;;;12.57;9.57;;;33.00;42.80;;;;;;5073651;28;20182;-52
2021/04/01 12:02:05;;;;;;;12.77;9.90;;;32.00;44.00;;;;;;5076851;28;20173;-53
2021/04/01 12:04:33;;;;;;;13.18;8.90;;;31.50;44.00;;;;;;5077189;28;20599;-49
2021/04/01 12:06:59;;;;;;;13.40;10.05;;;30.40;47.90;;;;;;5076801;28;20198;-48
2021/04/01 12:09:26;;;;;;;12.77;9.48;;;30.10;45.10;;;;;;5076807;28;20527;-48
2021/04/01 12:11:52;;;;;;;15.57;9.70;;;30.00;46.90;;;;;;5074478;28;20167;-50
2021/04/01 12:14:18;;;;;;;13.13;9.23;;;29.70;49.00;;;;;;5076876;28;20167;-50
2021/04/01 12:16:45;;;;;;;16.63;9.45;;;29.70;48.40;;;;;;5076178;28;20198;-59
2021/04/01 12:19:11;;;;;;;13.57;9.88;;;30.70;47.80;;;;;;5076987;28;20178;-54
2021/04/01 12:21:38;;;;;;;11.95;9.07;;;30.50;46.30;;;;;;5076662;28;20240;-58
2021/04/01 12:24:05;;;;;;;11.82;8.55;;;29.80;48.60;;;;;;5076595;28;20190;-55
2021/04/01 12:26:48;;;;;;;12.45;8.82;;;30.90;47.70;;;;;;5076342;28;20195;-57
2021/04/01 12:29:13;;;;;;;12.95;9.27;;;30.70;43.90;;;;;;5076300;28;20209;-56
2021/04/01 12:31:41;;;;;;;12.35;9.45;;;29.70;46.30;;;;;;5076522;28;20175;-58
2021/04/01 12:34:11;;;;;;;10.23;8.23;;;28.90;45.30;;;;;;5076539;28;20244;-58
2021/04/01 12:36:41;;;;;;;12.38;9.32;;;28.40;49.10;;;;;;5076249;28;20260;-60
2021/04/01 12:39:11;;;;;;;12.32;8.90;;;29.00;45.20;;;;;;5076621;28;20261;-58
2021/04/01 12:41:43;;;;;;;12.07;8.75;;;29.00;47.40;;;;;;5076183;28;20179;-58
2021/04/01 12:44:08;;;;;;;10.77;8.63;;;28.80;45.10;;;;;;5056587;28;20152;-59
2021/04/01 12:46:45;;;;;;;13.40;9.52;;;28.40;46.90;;;;;;5056169;28;20195;-49
2021/04/01 12:49:14;;;;;;;12.50;8.52;;;28.80;47.60;;;;;;5055840;28;20681;-59
2021/04/01 12:52:00;;;;;;;10.02;7.43;;;28.80;48.40;;;;;;5055763;28;20190;-59
2021/04/01 12:54:29;;;;;;;16.67;7.78;;;28.90;45.30;;;;;;5055768;28;20171;-60
2021/04/01 12:56:59;;;;;;;12.40;7.57;;;28.80;43.10;;;;;;5056510;28;20203;-49
2021/04/01 12:59:34;;;;;;;10.43;7.90;;;28.60;41.60;;;;;;5055875;28;20246;-48
2021/04/01 13:02:06;;;;;;;12.00;8.32;;;28.60;44.20;;;;;;5055402;28;20202;-48
2021/04/01 13:04:34;;;;;;;10.02;7.80;;;28.80;45.60;;;;;;5056755;28;20590;-59
2021/04/01 13:09:43;;;;;;;12.48;9.05;;;28.10;43.20;;;;;;5055441;28;20201;-59
2021/04/01 13:12:15;;;;;;;12.27;8.93;;;27.70;45.40;;;;;;5054424;28;20600;-56
2021/04/01 13:14:41;;;;;;;12.93;8.57;;;27.00;44.30;;;;;;5055743;28;20213;-52
2021/04/01 13:17:07;;;;;;;10.70;7.93;;;27.00;45.80;;;;;;5055117;28;20679;-48
2021/04/01 13:19:33;;;;;;;11.98;9.10;;;27.20;45.90;;;;;;5055136;28;20651;-48
2021/04/01 13:27:09;;;;;;;14.20;9.23;;;26.50;46.30;;;;;;5055379;28;20210;-54
2021/04/01 13:29:37;;;;;;;11.90;9.30;;;26.70;46.80;;;;;;5055010;28;20264;-56
2021/04/01 13:32:19;;;;;;;14.07;9.73;;;27.10;45.30;;;;;;5054772;28;20183;-49
2021/04/01 13:34:51;;;;;;;11.63;9.52;;;27.10;45.00;;;;;;5054031;28;20156;-48
2021/04/01 13:40:00;;;;;;;16.65;9.45;;;27.50;47.00;;;;;;5055076;28;20182;-48
2021/04/01 13:42:28;;;;;;;13.27;8.00;;;27.90;46.30;;;;;;5054213;28;20248;-59
2021/04/01 13:44:57;;;;;;;10.95;7.45;;;27.80;43.40;;;;;;5054801;28;20550;-59
2021/04/01 13:47:26;;;;;;;10.45;7.20;;;27.60;43.50;;;;;;5054275;28;20186;-54
2021/04/01 13:49:53;;;;;;;9.57;7.15;;;27.40;43.00;;;;;;5055216;28;20204;-48
2021/04/01 13:57:51;;;;;;;9.75;6.90;;;27.00;44.00;;;;;;5054544;28;20158;-59
2021/04/01 14:11:19;;;;;;;11.25;7.13;;;27.80;42.80;;;;;;5074755;28;20224;-48
2021/04/01 14:13:46;;;;;;;9.48;7.47;;;27.30;42.90;;;;;;5074341;28;20171;-50
2021/04/01 14:16:14;;;;;;;11.35;7.22;;;27.10;43.20;;;;;;5074444;28;20197;-60
2021/04/01 14:18:45;;;;;;;9.90;7.22;;;27.20;45.00;;;;;;5074556;28;20183;-48
2021/04/01 14:21:10;;;;;;;16.33;7.05;;;27.50;45.00;;;;;;5074275;28;20224;-58
2021/04/01 14:23:37;;;;;;;10.13;7.13;;;27.90;43.00;;;;;;5063760;28;20207;-57
2021/04/01 14:26:13;;;;;;;9.00;6.97;;;28.30;43.60;;;;;;5072696;28;20190;-53
2021/04/01 14:28:40;;;;;;;12.50;7.60;;;28.50;42.30;;;;;;5053110;28;20195;-55
2021/04/01 14:31:06;;;;;;;10.48;7.60;;;27.90;42.60;;;;;;5051680;28;20627;-51
2021/04/01 14:33:32;;;;;;;8.20;7.18;;;27.50;43.70;;;;;;5051756;28;20181;-50
2021/04/01 14:36:00;;;;;;;10.05;7.25;;;27.00;44.00;;;;;;5051600;28;20266;-51
2021/04/01 14:38:26;;;;;;;11.40;7.93;;;26.60;44.20;;;;;;5051770;28;20218;-59
2021/04/01 14:41:00;;;;;;;10.60;7.38;;;26.40;44.20;;;;;;5051600;28;20262;-53
2021/04/01 14:44:16;;;;;;;10.80;7.57;;;26.10;44.80;;;;;;5051835;28;20166;-48
2021/04/01 14:46:12;;;;;;;12.45;8.70;;;25.80;45.00;;;;;;5043585;28;20657;-59
2021/04/01 14:48:38;;;;;;;14.07;9.18;;;25.50;44.80;;;;;;5053675;28;20198;-51
2021/04/01 14:51:04;;;;;;;11.48;7.93;;;25.10;46.50;;;;;;5053947;28;20182;-60
2021/04/01 14:56:13;;;;;;;11.82;8.18;;;24.90;48.50;;;;;;5053931;28;20193;-48
2021/04/01 14:58:40;;;;;;;12.70;9.35;;;25.00;48.50;;;;;;5053973;28;20638;-49
2021/04/01 15:01:07;;;;;;;9.38;8.38;;;25.00;47.50;;;;;;5053505;28;20175;-49
2021/04/01 15:03:36;;;;;;;11.90;8.43;;;25.00;48.50;;;;;;5053394;28;20171;-55